Weather at Aviosuperficie "LYRA 34"

Public forecast

Using degrees Celsius for public forecast. Weather courtesy of forecast.io.

Closest aviation weather report (METAR) to Aviosuperficie "LYRA 34"

Closest report is Forlì Airport, 19.1 nm (35.4 km) SSE. Retrieved 2022/07/04 11:50 UTC (50 minutes ago):

LIPK 041150Z VRB03KT CAVOK 35/19 Q1013

Closest aviation forecast (TAF) to Aviosuperficie "LYRA 34"

Closest forecast is Forlì Airport, 19.1 nm (35.4 km) SSE. Retrieved 2022/07/04 12:00 UTC (40 minutes ago):

TAF LIPK 041100Z 0412/0512 08010KT CAVOK BECMG 0417/0419 24007KT